createdAt,value
2023-02-24T00:02:02.187Z,4.68
2023-02-24T00:04:31.774Z,6.20
2023-02-24T00:06:59.785Z,4.40
2023-02-24T00:09:28.300Z,5.13
2023-02-24T00:11:57.927Z,4.78
2023-02-24T00:14:27.160Z,4.97
2023-02-24T00:16:54.084Z,4.88
2023-02-24T00:19:23.606Z,5.15
2023-02-24T00:21:51.584Z,5.15
2023-02-24T00:24:18.665Z,5.38
2023-02-24T00:26:48.374Z,5.43
2023-02-24T00:29:15.095Z,5.00
2023-02-24T00:31:42.945Z,5.20
2023-02-24T00:34:12.626Z,4.97
2023-02-24T00:36:39.518Z,4.78
2023-02-24T00:39:11.060Z,5.55
2023-02-24T00:41:43.778Z,5.20
2023-02-24T00:44:13.087Z,6.15
2023-02-24T00:46:45.040Z,6.03
2023-02-24T00:49:17.266Z,5.47
2023-02-24T00:51:49.672Z,7.57
2023-02-24T00:54:17.189Z,5.57
2023-02-24T00:56:45.530Z,6.32
2023-02-24T00:59:13.844Z,4.90
2023-02-24T01:01:40.993Z,5.63
2023-02-24T01:04:11.656Z,4.72
2023-02-24T01:06:41.738Z,4.65
2023-02-24T01:09:11.020Z,4.90
2023-02-24T01:11:56.897Z,5.10
2023-02-24T01:14:26.962Z,4.85
2023-02-24T01:16:54.168Z,4.65
2023-02-24T01:19:23.372Z,5.20
2023-02-24T01:21:55.082Z,5.05
2023-02-24T01:24:23.822Z,4.95
2023-02-24T01:26:50.905Z,4.75
2023-02-24T01:29:17.662Z,4.97
2023-02-24T01:31:44.571Z,4.47
2023-02-24T01:34:13.369Z,5.22
2023-02-24T01:36:43.285Z,5.22
2023-02-24T01:39:11.499Z,4.25
2023-02-24T01:41:41.176Z,5.38
2023-02-24T01:44:32.526Z,4.45
2023-02-24T01:47:03.657Z,4.20
2023-02-24T01:49:34.804Z,4.55
2023-02-24T01:52:12.177Z,4.78
2023-02-24T01:54:43.262Z,4.45
2023-02-24T01:57:11.172Z,3.83
2023-02-24T01:59:38.851Z,4.55
2023-02-24T02:02:07.568Z,3.95
2023-02-24T02:04:40.262Z,4.90
2023-02-24T02:07:10.154Z,4.35
2023-02-24T02:09:38.912Z,4.15
2023-02-24T02:12:06.746Z,4.07
2023-02-24T02:14:36.736Z,4.30
2023-02-24T02:17:30.250Z,3.83
2023-02-24T02:20:31.200Z,4.53
2023-02-24T02:23:19.640Z,3.47
2023-02-24T02:26:00.929Z,4.07
2023-02-24T02:29:06.364Z,4.00
2023-02-24T02:31:58.062Z,4.10
2023-02-24T02:34:28.243Z,4.75
2023-02-24T02:37:12.102Z,4.55
2023-02-24T02:39:49.687Z,4.70
2023-02-24T02:42:30.358Z,4.55
2023-02-24T02:45:10.156Z,4.22
2023-02-24T02:47:43.317Z,4.55
2023-02-24T02:50:18.617Z,3.80
2023-02-24T02:52:58.260Z,3.40
2023-02-24T02:55:40.574Z,5.13
2023-02-24T02:58:12.117Z,4.22
2023-02-24T03:00:43.488Z,4.15
2023-02-24T03:03:13.036Z,3.60
2023-02-24T03:05:46.893Z,4.20
2023-02-24T03:08:16.778Z,4.30
2023-02-24T03:10:44.816Z,4.30
2023-02-24T03:13:13.317Z,4.57
2023-02-24T03:15:42.504Z,4.28
2023-02-24T03:18:15.038Z,3.92
2023-02-24T03:20:52.082Z,3.95
2023-02-24T03:23:25.215Z,4.10
2023-02-24T03:25:58.571Z,3.80
2023-02-24T03:28:37.410Z,3.92
2023-02-24T03:31:18.175Z,4.05
2023-02-24T03:33:53.054Z,4.32
2023-02-24T03:36:19.953Z,4.00
2023-02-24T03:38:50.337Z,3.65
2023-02-24T03:41:18.648Z,4.90
2023-02-24T03:43:47.883Z,3.88
2023-02-24T03:46:17.173Z,4.05
2023-02-24T03:48:53.109Z,4.20
2023-02-24T03:51:21.487Z,3.78
2023-02-24T03:54:06.957Z,4.07
2023-02-24T03:57:07.501Z,4.18
2023-02-24T04:00:26.486Z,3.60
2023-02-24T04:03:18.402Z,3.58
2023-02-24T04:06:11.612Z,3.63
2023-02-24T04:08:45.162Z,3.28
2023-02-24T04:11:41.192Z,3.60
2023-02-24T04:14:18.888Z,3.85
2023-02-24T04:16:57.031Z,3.78
2023-02-24T04:19:27.548Z,3.78
2023-02-24T04:21:55.096Z,4.05
2023-02-24T04:24:29.351Z,4.00
2023-02-24T04:26:59.085Z,3.47
2023-02-24T04:29:29.103Z,3.13
2023-02-24T04:32:03.477Z,4.07
2023-02-24T04:34:32.589Z,3.72
2023-02-24T04:37:02.383Z,4.25
2023-02-24T04:39:31.056Z,4.03
2023-02-24T04:42:01.599Z,3.83
2023-02-24T04:44:29.207Z,3.95
2023-02-24T04:46:56.517Z,4.72
2023-02-24T04:49:23.196Z,3.70
2023-02-24T04:51:51.526Z,4.68
2023-02-24T04:54:20.345Z,4.03
2023-02-24T04:56:48.569Z,4.10
2023-02-24T04:59:15.381Z,4.07
2023-02-24T05:01:44.049Z,2.90
2023-02-24T05:04:12.873Z,3.40
2023-02-24T05:06:44.406Z,3.38
2023-02-24T05:09:16.927Z,4.13
2023-02-24T05:11:52.546Z,3.50
2023-02-24T05:14:24.919Z,3.70
2023-02-24T05:16:51.496Z,3.25
2023-02-24T05:19:38.708Z,3.60
2023-02-24T05:22:07.139Z,2.90
2023-02-24T05:24:34.683Z,3.13
2023-02-24T05:27:03.676Z,3.25
2023-02-24T05:29:32.849Z,4.10
2023-02-24T05:32:00.103Z,4.10
2023-02-24T05:34:28.150Z,4.57
2023-02-24T05:36:54.749Z,4.35
2023-02-24T05:39:21.677Z,4.07
2023-02-24T05:41:49.619Z,4.60
2023-02-24T05:44:22.547Z,5.47
2023-02-24T05:46:53.335Z,4.78
2023-02-24T05:49:27.363Z,4.38
2023-02-24T05:52:00.813Z,4.78
2023-02-24T05:54:33.569Z,3.97
2023-02-24T05:57:02.525Z,3.20
2023-02-24T05:59:33.006Z,3.90
2023-02-24T06:02:07.293Z,3.53
2023-02-24T06:04:40.982Z,3.60
2023-02-24T06:07:19.629Z,3.63
2023-02-24T06:09:57.803Z,3.28
2023-02-24T06:12:26.699Z,3.83
2023-02-24T06:14:53.475Z,3.60
2023-02-24T06:17:21.294Z,3.15
2023-02-24T06:19:50.856Z,3.10
2023-02-24T06:22:19.393Z,3.53
2023-02-24T06:24:48.726Z,3.00
2023-02-24T06:27:21.471Z,3.03
2023-02-24T06:29:50.466Z,3.40
2023-02-24T06:32:18.646Z,3.42
2023-02-24T06:34:45.956Z,2.90
2023-02-24T06:37:14.245Z,2.78
2023-02-24T06:39:41.284Z,3.08
2023-02-24T06:42:08.840Z,3.45
2023-02-24T06:44:38.370Z,3.22
2023-02-24T06:47:07.340Z,4.50
2023-02-24T06:49:34.461Z,3.28
2023-02-24T06:52:01.132Z,2.38
2023-02-24T06:54:30.615Z,2.85
2023-02-24T06:56:59.032Z,3.28
2023-02-24T06:59:29.407Z,2.70
2023-02-24T07:01:56.684Z,3.17
2023-02-24T07:04:28.164Z,3.42
2023-02-24T07:06:57.753Z,3.38
2023-02-24T07:09:26.759Z,2.97
2023-02-24T07:11:55.993Z,3.05
2023-02-24T07:14:27.630Z,3.40
2023-02-24T07:16:55.092Z,2.70
2023-02-24T07:19:30.318Z,2.95
2023-02-24T07:22:02.157Z,3.20
2023-02-24T07:24:36.460Z,3.45
2023-02-24T07:27:05.928Z,3.22
2023-02-24T07:29:33.440Z,3.45
2023-02-24T07:32:03.433Z,3.75
2023-02-24T07:34:30.814Z,2.78
2023-02-24T07:36:58.497Z,3.90
2023-02-24T07:39:25.685Z,3.08
2023-02-24T07:41:55.183Z,3.88
2023-02-24T07:44:25.553Z,3.45
2023-02-24T07:46:52.486Z,3.00
2023-02-24T07:49:22.606Z,3.40
2023-02-24T07:51:52.905Z,2.97
2023-02-24T07:54:21.307Z,3.25
2023-02-24T07:56:56.417Z,3.60
2023-02-24T07:59:29.001Z,3.08
2023-02-24T08:01:56.344Z,3.50
2023-02-24T08:04:33.209Z,3.05
2023-02-24T08:07:03.075Z,3.40
2023-02-24T08:09:46.385Z,3.60
2023-02-24T08:12:18.623Z,3.00
2023-02-24T08:14:50.742Z,3.38
2023-02-24T08:17:23.634Z,3.65
2023-02-24T08:20:08.476Z,2.67
2023-02-24T08:22:37.304Z,3.35
2023-02-24T08:25:07.246Z,3.70
2023-02-24T08:27:42.148Z,4.47
2023-02-24T08:30:21.150Z,4.20
2023-02-24T08:32:52.581Z,3.38
2023-02-24T08:35:21.786Z,3.38
2023-02-24T08:37:52.013Z,3.55
2023-02-24T08:40:33.166Z,3.50
2023-02-24T08:43:17.142Z,3.67
2023-02-24T08:46:25.621Z,4.55
2023-02-24T08:48:57.735Z,4.15
2023-02-24T08:51:35.074Z,3.55
2023-02-24T08:54:15.603Z,3.50
2023-02-24T08:56:47.631Z,3.08
2023-02-24T08:59:35.366Z,3.75
2023-02-24T09:02:20.676Z,3.28
2023-02-24T09:04:55.433Z,3.60
2023-02-24T09:07:37.213Z,3.47
2023-02-24T09:10:18.819Z,3.58
2023-02-24T09:12:46.709Z,3.70
2023-02-24T09:15:15.432Z,3.63
2023-02-24T09:17:46.332Z,3.63
2023-02-24T09:20:35.007Z,3.42
2023-02-24T09:23:02.239Z,3.83
2023-02-24T09:25:41.574Z,3.90
2023-02-24T09:28:17.750Z,4.05
2023-02-24T09:30:53.290Z,3.47
2023-02-24T09:33:21.291Z,3.28
2023-02-24T09:36:12.916Z,4.38
2023-02-24T09:39:00.505Z,3.85
2023-02-24T09:41:58.641Z,1.30
2023-02-24T09:44:38.341Z,2.95
2023-02-24T09:47:18.212Z,3.00
2023-02-24T09:49:48.541Z,3.00
2023-02-24T09:52:17.732Z,2.15
2023-02-24T09:55:13.594Z,3.25
2023-02-24T09:58:42.896Z,2.30
2023-02-24T10:01:33.358Z,3.75
2023-02-24T10:04:20.877Z,1.50
2023-02-24T10:07:11.411Z,2.95
2023-02-24T10:09:49.859Z,2.80
2023-02-24T10:12:19.000Z,3.63
2023-02-24T10:15:19.069Z,3.67
2023-02-24T10:17:58.576Z,3.10
2023-02-24T10:20:39.676Z,3.35
2023-02-24T10:23:16.090Z,3.17
2023-02-24T10:25:53.800Z,2.70
2023-02-24T10:28:36.125Z,2.67
2023-02-24T10:31:48.360Z,2.95
2023-02-24T10:34:20.818Z,3.00
2023-02-24T10:36:50.361Z,2.35
2023-02-24T10:39:25.747Z,3.50
2023-02-24T10:41:57.998Z,3.55
2023-02-24T10:45:01.428Z,3.03
2023-02-24T10:47:32.802Z,2.30
2023-02-24T10:50:01.442Z,3.88
2023-02-24T10:52:52.824Z,3.58
2023-02-24T10:55:29.039Z,3.30
2023-02-24T10:58:06.199Z,4.18
2023-02-24T11:01:03.171Z,1.48
2023-02-24T11:03:36.370Z,3.70
2023-02-24T11:06:03.702Z,3.22
2023-02-24T11:08:47.920Z,3.83
2023-02-24T11:11:25.597Z,3.75
2023-02-24T11:14:11.961Z,4.35
2023-02-24T11:17:02.301Z,3.40
2023-02-24T11:19:31.091Z,3.80
2023-02-24T11:21:58.296Z,4.28
2023-02-24T11:24:25.719Z,4.25
2023-02-24T11:26:52.513Z,4.13
2023-02-24T11:29:25.225Z,4.15
2023-02-24T11:31:59.104Z,4.00
2023-02-24T11:35:05.771Z,3.60
2023-02-24T11:37:46.086Z,3.70
2023-02-24T11:40:25.741Z,3.88
2023-02-24T11:43:14.485Z,4.10
2023-02-24T11:45:51.294Z,4.70
2023-02-24T11:48:23.895Z,4.35
2023-02-24T11:51:10.228Z,4.78
2023-02-24T11:54:05.480Z,4.00
2023-02-24T11:56:40.084Z,4.85
2023-02-24T11:59:38.879Z,5.32
2023-02-24T12:02:43.593Z,5.30
2023-02-24T12:05:16.937Z,3.83
2023-02-24T12:07:55.215Z,4.78
2023-02-24T12:10:36.364Z,5.82
2023-02-24T12:13:16.428Z,5.03
2023-02-24T12:15:56.172Z,4.38
2023-02-24T12:18:45.971Z,5.97
2023-02-24T12:21:23.447Z,5.82
2023-02-24T12:23:53.599Z,6.38
2023-02-24T12:26:42.565Z,4.95
2023-02-24T12:29:54.628Z,7.00
2023-02-24T12:32:30.445Z,6.47
2023-02-24T12:35:19.712Z,8.25
2023-02-24T12:38:17.347Z,7.30
2023-02-24T12:40:51.265Z,6.65
2023-02-24T12:43:23.733Z,6.13
2023-02-24T12:46:09.423Z,7.30
2023-02-24T12:48:54.764Z,7.93
2023-02-24T12:51:24.584Z,6.05
2023-02-24T12:54:33.272Z,8.75
2023-02-24T12:57:12.037Z,8.90
2023-02-24T12:59:40.178Z,7.72
2023-02-24T13:02:34.887Z,8.38
2023-02-24T13:05:06.434Z,2.70
2023-02-24T13:07:39.457Z,7.63
2023-02-24T13:10:16.690Z,8.50
2023-02-24T13:13:00.354Z,5.43
2023-02-24T13:15:31.295Z,10.07
2023-02-24T13:17:58.601Z,8.40
2023-02-24T13:20:36.984Z,10.15
2023-02-24T13:23:20.087Z,6.20
2023-02-24T13:25:54.894Z,9.40
2023-02-24T13:28:25.438Z,8.18
2023-02-24T13:31:06.803Z,3.03
2023-02-24T13:33:43.873Z,8.48
2023-02-24T13:36:20.586Z,7.68
2023-02-24T13:38:48.949Z,6.88
2023-02-24T13:41:22.130Z,7.80
2023-02-24T13:44:27.617Z,1.88
2023-02-24T13:47:12.898Z,7.05
2023-02-24T13:49:55.037Z,8.27
2023-02-24T13:52:27.562Z,4.43
2023-02-24T13:55:12.134Z,6.22
2023-02-24T13:57:47.736Z,7.85
2023-02-24T14:00:26.491Z,8.32
2023-02-24T14:02:53.566Z,9.50
2023-02-24T14:05:27.417Z,9.25
2023-02-24T14:07:54.738Z,9.80
2023-02-24T14:10:25.197Z,9.32
2023-02-24T14:13:29.863Z,11.18
2023-02-24T14:15:58.510Z,11.45
2023-02-24T14:18:27.643Z,12.98
2023-02-24T14:20:56.076Z,12.35
2023-02-24T14:23:25.693Z,12.60
2023-02-24T14:26:00.154Z,12.40
2023-02-24T14:28:32.151Z,12.25
2023-02-24T14:31:00.783Z,12.55
2023-02-24T14:33:36.028Z,12.98
2023-02-24T14:36:07.835Z,13.38
2023-02-24T14:38:40.008Z,14.27
2023-02-24T14:41:25.069Z,13.93
2023-02-24T14:43:52.494Z,14.63
2023-02-24T14:46:19.744Z,15.45
2023-02-24T14:48:52.768Z,15.02
2023-02-24T14:51:31.497Z,14.93
2023-02-24T14:54:02.247Z,13.48
2023-02-24T14:56:31.621Z,15.13
2023-02-24T14:59:03.007Z,15.27
2023-02-24T15:01:45.447Z,14.00
2023-02-24T15:04:15.870Z,17.45
2023-02-24T15:06:43.917Z,15.43
2023-02-24T15:09:17.225Z,16.67
2023-02-24T15:11:43.965Z,17.52
2023-02-24T15:14:21.805Z,13.25
2023-02-24T15:17:00.855Z,16.10
2023-02-24T15:19:46.449Z,14.80
2023-02-24T15:22:31.374Z,13.90
2023-02-24T15:25:22.405Z,19.60
2023-02-24T15:27:56.503Z,18.85
2023-02-24T15:30:27.727Z,17.95
2023-02-24T15:33:07.311Z,18.40
2023-02-24T15:35:35.839Z,11.48
2023-02-24T15:38:02.561Z,17.38
2023-02-24T15:40:29.995Z,18.05
2023-02-24T15:43:07.943Z,18.75
2023-02-24T15:45:37.853Z,18.42
2023-02-24T15:48:19.888Z,18.67
2023-02-24T15:50:46.735Z,16.48
2023-02-24T15:53:13.554Z,18.05
2023-02-24T15:55:43.829Z,16.98
2023-02-24T15:58:18.403Z,16.30
2023-02-24T16:00:45.611Z,17.52
2023-02-24T16:03:12.653Z,19.00
2023-02-24T16:05:39.368Z,17.35
2023-02-24T16:08:10.195Z,18.58
2023-02-24T16:10:36.913Z,19.63
2023-02-24T16:13:03.595Z,20.58
2023-02-24T16:15:33.928Z,18.20
2023-02-24T16:18:02.377Z,18.77
2023-02-24T16:20:35.706Z,18.98
2023-02-24T16:23:04.426Z,18.08
2023-02-24T16:25:41.772Z,11.95
2023-02-24T16:28:14.069Z,9.15
2023-02-24T16:30:41.639Z,4.32
2023-02-24T16:33:15.681Z,5.50
2023-02-24T16:35:44.174Z,5.03
2023-02-24T16:38:15.650Z,4.82
2023-02-24T16:40:44.938Z,4.22
2023-02-24T16:43:13.336Z,4.68
2023-02-24T16:45:41.325Z,4.35
2023-02-24T16:48:35.799Z,3.92
2023-02-24T16:51:03.791Z,4.35
2023-02-24T16:53:31.135Z,4.20
2023-02-24T16:55:58.065Z,2.70
2023-02-24T16:58:24.837Z,3.65
2023-02-24T17:00:53.646Z,3.33
2023-02-24T17:03:23.065Z,3.15
2023-02-24T17:05:50.199Z,2.97
2023-02-24T17:08:17.443Z,1.80
2023-02-24T17:10:44.939Z,1.70
2023-02-24T17:13:13.318Z,2.72
2023-02-24T17:15:40.147Z,2.70
2023-02-24T17:18:07.204Z,2.60
2023-02-24T17:20:35.177Z,2.67
2023-02-24T17:23:02.266Z,2.53
2023-02-24T17:25:29.970Z,3.88
2023-02-24T17:27:57.065Z,2.70
2023-02-24T17:30:33.203Z,3.15
2023-02-24T17:33:00.434Z,2.90
2023-02-24T17:35:27.616Z,2.35
2023-02-24T17:37:54.325Z,3.58
2023-02-24T17:40:21.164Z,1.65
2023-02-24T17:42:47.827Z,2.88
2023-02-24T17:45:15.185Z,2.13
2023-02-24T17:47:42.244Z,2.47
2023-02-24T17:50:10.719Z,3.60
2023-02-24T17:52:37.527Z,4.13
2023-02-24T17:55:05.526Z,4.30
2023-02-24T17:57:34.235Z,3.38
2023-02-24T18:00:00.928Z,3.45
2023-02-24T18:02:27.756Z,3.10
2023-02-24T18:04:54.451Z,3.10
2023-02-24T18:07:21.311Z,2.63
2023-02-24T18:09:48.156Z,3.08
2023-02-24T18:12:14.822Z,2.13
2023-02-24T18:14:41.616Z,2.33
2023-02-24T18:17:08.271Z,2.63
2023-02-24T18:19:34.874Z,1.80
2023-02-24T18:22:01.581Z,2.38
2023-02-24T18:24:28.411Z,2.22
2023-02-24T18:26:55.137Z,2.65
2023-02-24T18:29:21.739Z,1.58
2023-02-24T18:31:48.817Z,1.25
2023-02-24T18:34:15.584Z,1.70
2023-02-24T18:36:42.271Z,1.25
2023-02-24T18:39:09.866Z,1.23
2023-02-24T18:41:36.440Z,1.45
2023-02-24T18:44:03.255Z,1.95
2023-02-24T18:46:29.889Z,1.50
2023-02-24T18:49:00.333Z,1.65
2023-02-24T18:51:28.893Z,1.60
2023-02-24T18:53:58.193Z,1.70
2023-02-24T18:56:26.281Z,1.60
2023-02-24T18:58:55.386Z,2.00
2023-02-24T19:01:24.062Z,1.70
2023-02-24T19:03:52.120Z,1.30
2023-02-24T19:06:20.717Z,1.70
2023-02-24T19:08:50.224Z,2.17
2023-02-24T19:11:19.089Z,2.53
2023-02-24T19:13:49.431Z,3.28
2023-02-24T19:16:17.828Z,2.10
2023-02-24T19:18:45.259Z,2.35
2023-02-24T19:21:11.901Z,2.03
2023-02-24T19:23:38.601Z,1.98
2023-02-24T19:26:07.566Z,2.10
2023-02-24T19:28:34.344Z,1.73
2023-02-24T19:31:01.579Z,1.77
2023-02-24T19:33:28.310Z,2.08
2023-02-24T19:35:59.514Z,1.95
2023-02-24T19:38:26.517Z,1.85
2023-02-24T19:40:53.111Z,1.98
2023-02-24T19:43:19.734Z,2.22
2023-02-24T19:45:46.413Z,2.50
2023-02-24T19:48:13.108Z,2.45
2023-02-24T19:50:41.241Z,2.95
2023-02-24T19:53:08.234Z,2.58
2023-02-24T19:55:35.192Z,2.95
2023-02-24T19:58:02.027Z,2.92
2023-02-24T20:00:28.812Z,1.77
2023-02-24T20:02:55.394Z,2.10
2023-02-24T20:05:22.462Z,2.00
2023-02-24T20:07:49.140Z,3.17
2023-02-24T20:10:17.085Z,2.13
2023-02-24T20:12:44.833Z,2.53
2023-02-24T20:15:11.843Z,3.05
2023-02-24T20:17:38.497Z,3.95
2023-02-24T20:20:05.794Z,2.97
2023-02-24T20:22:32.458Z,1.80
2023-02-24T20:24:59.736Z,2.58
2023-02-24T20:27:26.440Z,2.75
2023-02-24T20:29:55.973Z,2.90
2023-02-24T20:32:23.379Z,2.05
2023-02-24T20:34:50.531Z,3.15
2023-02-24T20:37:17.317Z,2.78
2023-02-24T20:39:43.974Z,2.20
2023-02-24T20:42:12.123Z,3.33
2023-02-24T20:44:38.861Z,2.10
2023-02-24T20:47:05.501Z,2.60
2023-02-24T20:49:32.875Z,2.38
2023-02-24T20:51:59.582Z,2.50
2023-02-24T20:54:26.537Z,2.45
2023-02-24T20:56:53.360Z,2.97
2023-02-24T20:59:21.978Z,3.60
2023-02-24T21:01:49.143Z,2.33
2023-02-24T21:04:17.778Z,2.42
2023-02-24T21:06:44.446Z,3.05
2023-02-24T21:09:13.921Z,3.75
2023-02-24T21:11:40.522Z,4.20
2023-02-24T21:14:07.277Z,3.47
2023-02-24T21:16:36.823Z,3.00
2023-02-24T21:19:03.563Z,3.20
2023-02-24T21:21:30.222Z,3.00
2023-02-24T21:23:56.969Z,2.97
2023-02-24T21:26:29.026Z,3.22
2023-02-24T21:28:57.890Z,3.40
2023-02-24T21:31:25.353Z,3.50
2023-02-24T21:33:53.024Z,2.85
2023-02-24T21:36:21.564Z,2.58
2023-02-24T21:38:48.952Z,3.60
2023-02-24T21:41:16.035Z,2.53
2023-02-24T21:43:44.088Z,2.13
2023-02-24T21:46:11.896Z,2.67
2023-02-24T21:48:38.906Z,2.15
2023-02-24T21:51:09.442Z,2.28
2023-02-24T21:53:39.535Z,3.55
2023-02-24T21:56:17.879Z,2.90
2023-02-24T21:58:46.963Z,2.92
2023-02-24T22:01:25.803Z,2.88
2023-02-24T22:03:57.215Z,3.40
2023-02-24T22:06:26.149Z,2.63
2023-02-24T22:08:54.347Z,4.28
2023-02-24T22:11:21.653Z,2.17
2023-02-24T22:13:48.841Z,4.03
2023-02-24T22:16:23.931Z,2.50
2023-02-24T22:18:52.775Z,3.33
2023-02-24T22:21:24.470Z,2.60
2023-02-24T22:23:53.096Z,3.17
2023-02-24T22:26:22.832Z,2.83
2023-02-24T22:28:49.824Z,3.15
2023-02-24T22:31:19.831Z,3.10
2023-02-24T22:33:46.726Z,3.15
2023-02-24T22:36:17.108Z,2.92
2023-02-24T22:38:45.558Z,4.03
2023-02-24T22:41:20.864Z,2.88
2023-02-24T22:43:47.870Z,3.97
2023-02-24T22:46:17.133Z,1.73
2023-02-24T22:48:44.143Z,2.92
2023-02-24T22:51:13.048Z,3.13
2023-02-24T22:53:41.922Z,2.58
2023-02-24T22:56:11.056Z,3.47
2023-02-24T22:58:37.856Z,2.67
2023-02-24T23:01:12.956Z,2.08
2023-02-24T23:03:40.192Z,3.00
2023-02-24T23:06:14.309Z,3.17
2023-02-24T23:08:42.565Z,3.03
2023-02-24T23:11:13.318Z,2.40
2023-02-24T23:13:41.055Z,2.80
2023-02-24T23:16:11.209Z,2.47
2023-02-24T23:18:38.231Z,3.05
2023-02-24T23:21:08.031Z,3.10
2023-02-24T23:23:35.011Z,3.22
2023-02-24T23:26:01.734Z,2.60
2023-02-24T23:28:28.813Z,3.13
2023-02-24T23:30:55.940Z,2.72
2023-02-24T23:33:22.739Z,3.03
2023-02-24T23:35:49.824Z,3.10
2023-02-24T23:38:16.941Z,2.30
2023-02-24T23:40:50.045Z,2.80
2023-02-24T23:43:17.000Z,2.42
2023-02-24T23:45:44.394Z,3.25
2023-02-24T23:48:13.137Z,2.55
2023-02-24T23:50:41.179Z,3.03
2023-02-24T23:53:07.753Z,1.73
2023-02-24T23:55:35.579Z,3.40
2023-02-24T23:58:03.356Z,3.97
